Time;durP1;ratioP1;P1;durP2;ratioP2;P2;SDS_P1;SDS_P2;PMS_P1;PMS_P2;Temp;Humidity;BMP_temperature;BMP_pressure;BME280_temperature;BME280_humidity;BME280_pressure;Samples;Min_cycle;Max_cycle;Signal;HPM_P1;HPM_P2
2023/07/07 00:02:04;;;;;;;6.50;5.30;;;;;;;15.28;64.61;100570.50;129389;1273;107607;-72
2023/07/07 00:05:10;;;;;;;8.00;5.30;;;;;;;15.21;64.83;100570.77;129252;1279;107266;-71
2023/07/07 00:08:15;;;;;;;7.20;4.60;;;;;;;15.10;64.83;100567.15;129180;1273;107548;-73
2023/07/07 00:11:21;;;;;;;6.30;4.40;;;;;;;15.04;65.11;100571.14;129186;1267;107578;-72
2023/07/07 00:14:26;;;;;;;6.30;4.70;;;;;;;14.98;65.23;100566.43;129181;1274;107557;-72
2023/07/07 00:17:32;;;;;;;6.10;4.70;;;;;;;14.95;65.13;100568.73;129325;1281;107476;-72
2023/07/07 00:20:37;;;;;;;7.80;4.60;;;;;;;14.91;65.13;100567.88;129196;1273;107570;-71
2023/07/07 00:23:43;;;;;;;6.20;4.90;;;;;;;14.88;65.21;100566.73;129231;1281;107450;-71
2023/07/07 00:26:48;;;;;;;6.30;5.00;;;;;;;14.86;65.63;100572.39;129154;1280;106580;-72
2023/07/07 00:29:54;;;;;;;7.10;5.30;;;;;;;14.85;65.55;100573.77;129281;1280;107398;-71
2023/07/07 00:33:00;;;;;;;7.40;5.20;;;;;;;14.64;65.59;100575.90;129295;1280;107582;-72
2023/07/07 00:36:07;;;;;;;6.60;4.70;;;;;;;14.50;65.86;100578.02;129325;1273;107183;-72
2023/07/07 00:39:12;;;;;;;7.80;4.80;;;;;;;14.48;66.11;100578.02;129134;1279;356800;-72
2023/07/07 00:42:18;;;;;;;6.40;4.90;;;;;;;14.45;66.09;100576.39;129417;1275;107597;-72
2023/07/07 00:45:24;;;;;;;5.90;4.90;;;;;;;14.38;66.32;100583.45;129322;1273;107403;-72
2023/07/07 00:48:34;;;;;;;5.60;4.80;;;;;;;14.32;66.22;100578.36;129225;1273;107665;-73
2023/07/07 00:51:45;;;;;;;6.40;4.90;;;;;;;14.26;66.28;100584.94;129227;1274;107507;-72
2023/07/07 00:54:51;;;;;;;5.90;5.00;;;;;;;14.22;66.07;100581.49;129410;1281;107220;-73
2023/07/07 00:58:01;;;;;;;7.00;4.70;;;;;;;14.17;66.45;100581.30;129077;1279;107570;-73
2023/07/07 01:01:12;;;;;;;7.60;4.90;;;;;;;14.08;66.47;100583.10;129360;1284;107495;-72
2023/07/07 01:04:20;;;;;;;6.40;4.90;;;;;;;13.95;66.71;100582.04;129451;1274;107437;-72
2023/07/07 01:07:31;;;;;;;7.20;4.90;;;;;;;13.81;66.94;100583.42;129417;1285;107517;-72
2023/07/07 01:10:36;;;;;;;9.90;4.80;;;;;;;13.73;66.99;100585.63;129456;1273;107246;-72
2023/07/07 01:13:42;;;;;;;6.40;4.80;;;;;;;13.77;67.02;100583.64;129420;1273;107457;-72
2023/07/07 01:16:58;;;;;;;7.40;5.40;;;;;;;13.68;66.86;100582.23;129438;1267;107569;-72
2023/07/07 01:20:16;;;;;;;6.40;5.20;;;;;;;13.52;67.12;100586.92;129503;1273;107285;-72
2023/07/07 01:24:00;;;;;;;8.60;5.40;;;;;;;13.21;67.26;100587.41;129407;1281;107427;-72
2023/07/07 01:27:32;;;;;;;7.00;5.20;;;;;;;13.19;67.58;100588.54;129433;1267;107538;-72
2023/07/07 01:30:45;;;;;;;8.50;5.10;;;;;;;13.08;67.69;100588.43;129395;1273;107379;-72
2023/07/07 01:33:52;;;;;;;7.10;4.70;;;;;;;13.06;67.83;100596.20;129287;1273;107486;-70
2023/07/07 01:36:57;;;;;;;6.50;4.70;;;;;;;13.02;67.83;100594.98;129207;1285;107588;-72
2023/07/07 01:40:04;;;;;;;9.00;4.90;;;;;;;12.93;67.91;100601.56;129291;1281;107543;-72
2023/07/07 01:43:14;;;;;;;7.30;4.80;;;;;;;12.93;67.92;100599.09;129260;1268;108196;-72
2023/07/07 01:46:28;;;;;;;8.40;4.70;;;;;;;12.93;67.75;100599.45;129382;1267;107541;-72
2023/07/07 01:49:39;;;;;;;8.50;5.10;;;;;;;12.95;67.94;100594.08;129231;1274;107633;-71
2023/07/07 01:52:49;;;;;;;6.10;4.90;;;;;;;12.89;68.05;100590.75;129346;1273;107375;-71
2023/07/07 01:55:59;;;;;;;5.80;4.80;;;;;;;12.81;68.19;100593.93;129320;1267;107534;-71
2023/07/07 01:59:06;;;;;;;6.40;4.60;;;;;;;12.69;68.33;100592.30;129078;1280;107564;-72
2023/07/07 02:02:12;;;;;;;7.70;4.90;;;;;;;12.62;68.37;100596.13;129321;1281;107425;-72
2023/07/07 02:05:18;;;;;;;6.30;4.40;;;;;;;12.52;68.46;100597.08;129410;1273;107417;-72
2023/07/07 02:08:24;;;;;;;7.70;4.60;;;;;;;12.41;68.52;100592.72;129323;1273;106627;-71
2023/07/07 02:11:29;;;;;;;8.20;4.70;;;;;;;12.40;68.75;100594.02;129228;1267;107361;-72
2023/07/07 02:14:36;;;;;;;5.70;4.90;;;;;;;12.41;68.62;100595.80;129206;1273;106843;-72
2023/07/07 02:17:41;;;;;;;5.90;5.00;;;;;;;12.38;68.68;100594.27;129128;1274;108712;-72
2023/07/07 02:20:47;;;;;;;6.70;4.80;;;;;;;12.35;68.52;100596.89;129198;1274;107566;-72
2023/07/07 02:23:52;;;;;;;8.00;4.70;;;;;;;12.36;68.72;100600.31;129187;1274;106354;-71
2023/07/07 02:26:58;;;;;;;5.70;4.80;;;;;;;12.28;68.59;100603.86;129399;1272;107376;-72
2023/07/07 02:30:04;;;;;;;5.00;4.20;;;;;;;12.19;68.77;100605.99;129194;1267;107459;-72
2023/07/07 02:33:11;;;;;;;6.10;4.30;;;;;;;12.12;68.68;100612.16;129470;1281;107848;-71
2023/07/07 02:36:18;;;;;;;7.70;4.70;;;;;;;12.07;69.08;100616.44;129399;1273;107476;-72
2023/07/07 02:39:24;;;;;;;8.20;4.70;;;;;;;12.09;69.11;100627.88;129424;1267;107303;-72
2023/07/07 02:42:29;;;;;;;6.40;4.90;;;;;;;11.96;69.32;100629.44;129404;1273;107520;-72
2023/07/07 02:45:35;;;;;;;7.80;4.70;;;;;;;12.00;69.66;100633.55;129403;1273;106454;-72
2023/07/07 02:48:40;;;;;;;6.90;5.50;;;;;;;11.98;69.67;100643.33;129418;1272;108287;-71
2023/07/07 02:51:46;;;;;;;7.60;5.10;;;;;;;12.04;70.00;100636.03;129278;1274;106737;-71
2023/07/07 02:54:51;;;;;;;5.90;4.50;;;;;;;12.08;70.02;100633.86;129372;1274;107399;-71
2023/07/07 02:57:57;;;;;;;6.90;4.70;;;;;;;12.17;70.43;100644.12;129259;1267;107310;-73
2023/07/07 03:01:14;;;;;;;6.20;4.50;;;;;;;12.27;70.40;100644.93;129260;1267;107696;-75
2023/07/07 03:04:20;;;;;;;5.60;4.70;;;;;;;12.41;70.49;100638.73;129434;1274;107248;-72
2023/07/07 03:07:25;;;;;;;5.40;4.60;;;;;;;12.50;70.54;100640.89;129065;1281;107606;-72
2023/07/07 03:10:34;;;;;;;5.60;4.50;;;;;;;12.58;70.60;100643.30;129173;1272;107478;-72
2023/07/07 03:13:41;;;;;;;6.00;4.70;;;;;;;12.69;70.77;100642.10;129335;1281;107661;-72
2023/07/07 03:16:51;;;;;;;7.20;4.50;;;;;;;12.79;71.13;100643.26;129126;1283;107475;-72
2023/07/07 03:19:59;;;;;;;;;;;;;;;12.91;71.31;100641.06;129247;1283;107478;-72
2023/07/07 03:23:05;;;;;;;5.70;4.60;;;;;;;13.12;71.45;100641.09;129229;1275;107354;-72
2023/07/07 03:26:13;;;;;;;7.70;4.90;;;;;;;13.32;71.56;100649.91;129297;1273;107559;-72
2023/07/07 03:29:19;;;;;;;7.30;4.80;;;;;;;13.36;71.74;100651.85;129436;1279;107601;-72
2023/07/07 03:32:25;;;;;;;8.70;5.20;;;;;;;13.48;72.23;100650.72;129197;1286;107545;-72
2023/07/07 03:35:36;;;;;;;7.40;5.00;;;;;;;13.64;71.84;100658.35;129086;1279;106484;-72
2023/07/07 03:38:43;;;;;;;6.80;5.00;;;;;;;13.83;71.97;100665.84;129286;1281;107506;-72
2023/07/07 03:41:50;;;;;;;6.60;4.90;;;;;;;13.88;71.89;100664.55;129191;1274;107573;-72
2023/07/07 03:44:55;;;;;;;7.00;5.30;;;;;;;14.06;72.00;100662.97;129252;1274;107557;-72
2023/07/07 03:48:01;;;;;;;6.40;4.90;;;;;;;14.19;72.12;100655.70;129212;1271;107544;-71
2023/07/07 03:51:08;;;;;;;6.40;4.80;;;;;;;14.26;72.23;100657.64;129380;1274;108277;-72
2023/07/07 03:54:14;;;;;;;5.70;4.20;;;;;;;14.27;72.21;100660.00;129373;1274;107553;-72
2023/07/07 03:57:20;;;;;;;6.10;4.60;;;;;;;14.36;72.32;100664.52;129292;1273;107315;-71
2023/07/07 04:00:25;;;;;;;6.80;4.40;;;;;;;14.47;72.59;100664.77;129427;1273;107534;-72
2023/07/07 04:03:31;;;;;;;5.80;4.40;;;;;;;14.54;72.41;100663.32;129414;1273;107631;-71
2023/07/07 04:06:37;;;;;;;6.30;5.00;;;;;;;14.62;72.58;100665.48;129293;1273;107547;-73
2023/07/07 04:09:42;;;;;;;9.20;5.00;;;;;;;14.83;72.61;100664.98;129237;1274;107515;-74
2023/07/07 04:12:48;;;;;;;7.80;6.10;;;;;;;15.00;72.36;100668.17;129336;1272;106497;-73
2023/07/07 04:16:01;;;;;;;6.20;4.80;;;;;;;14.99;72.24;100669.71;129375;1274;107254;-73
2023/07/07 04:19:07;;;;;;;6.60;4.50;;;;;;;15.01;72.45;100671.42;129097;1283;107528;-73
2023/07/07 04:22:13;;;;;;;7.40;4.40;;;;;;;15.11;72.48;100675.84;129266;1281;107711;-73
2023/07/07 04:25:19;;;;;;;10.40;4.60;;;;;;;15.26;72.51;100677.71;129160;1273;107540;-73
2023/07/07 04:28:26;;;;;;;6.50;4.60;;;;;;;15.38;72.53;100685.32;129380;1273;107501;-73
2023/07/07 04:31:32;;;;;;;5.20;4.40;;;;;;;15.52;72.49;100689.14;129413;1270;107471;-73
2023/07/07 04:34:37;;;;;;;6.50;4.50;;;;;;;15.67;72.50;100689.40;129396;1273;107566;-73
2023/07/07 04:37:42;;;;;;;6.40;4.90;;;;;;;15.80;72.28;100688.28;129297;1274;107677;-74
2023/07/07 04:40:48;;;;;;;6.40;4.80;;;;;;;15.88;72.44;100687.69;129409;1274;107595;-73
2023/07/07 04:43:56;;;;;;;6.30;3.60;;;;;;;15.96;72.52;100690.95;129436;1273;107502;-73
2023/07/07 04:47:02;;;;;;;5.60;4.00;;;;;;;16.29;72.38;100691.93;129483;1274;107278;-72
2023/07/07 04:50:08;;;;;;;6.90;4.30;;;;;;;16.75;71.72;100694.66;129466;1273;107519;-71
2023/07/07 04:53:14;;;;;;;7.20;4.20;;;;;;;17.16;71.46;100697.83;129423;1273;106769;-73
2023/07/07 04:56:22;;;;;;;5.00;3.70;;;;;;;17.60;71.03;100698.05;129413;1267;107590;-72
2023/07/07 04:59:28;;;;;;;6.60;3.90;;;;;;;17.96;70.62;100702.87;129362;1272;108963;-73
2023/07/07 05:02:35;;;;;;;5.50;4.10;;;;;;;18.33;70.36;100708.38;129418;1273;108522;-75
2023/07/07 05:05:41;;;;;;;5.50;3.80;;;;;;;18.61;69.97;100704.09;129371;1274;107551;-70
2023/07/07 05:08:46;;;;;;;6.30;4.10;;;;;;;18.82;69.83;100701.92;129247;1273;107547;-74
2023/07/07 05:11:52;;;;;;;7.70;4.60;;;;;;;19.05;69.50;100709.50;129272;1267;107414;-73
2023/07/07 05:14:58;;;;;;;5.80;4.80;;;;;;;19.25;69.42;100709.83;129220;1273;107276;-73
2023/07/07 05:18:04;;;;;;;6.90;6.10;;;;;;;19.43;68.86;100711.13;129247;1267;107595;-72
2023/07/07 05:21:11;;;;;;;8.80;6.00;;;;;;;19.36;68.72;100715.80;129429;1267;107600;-73
2023/07/07 05:24:17;;;;;;;6.90;6.20;;;;;;;19.32;67.87;100713.75;129416;1273;107392;-74
2023/07/07 05:27:22;;;;;;;8.10;5.10;;;;;;;19.33;67.99;100714.75;129170;1267;107570;-73
2023/07/07 05:30:28;;;;;;;10.50;5.50;;;;;;;19.42;67.44;100718.59;129236;1273;107733;-73
2023/07/07 05:33:34;;;;;;;6.10;4.90;;;;;;;19.43;67.89;100714.64;129286;1268;108722;-72
2023/07/07 05:36:40;;;;;;;5.40;4.90;;;;;;;19.55;67.66;100713.11;129409;1268;107551;-72
2023/07/07 05:39:49;;;;;;;7.30;5.10;;;;;;;19.71;67.63;100715.07;129276;1273;107556;-72
2023/07/07 05:42:55;;;;;;;6.30;4.50;;;;;;;19.79;66.62;100714.05;129223;1273;107646;-72
2023/07/07 05:46:03;;;;;;;9.20;5.10;;;;;;;19.83;66.08;100714.21;129292;1267;107569;-72
2023/07/07 05:49:08;;;;;;;6.60;4.90;;;;;;;19.88;66.41;100717.66;129450;1273;107632;-72
2023/07/07 05:52:14;;;;;;;6.90;4.60;;;;;;;19.99;66.23;100726.48;129152;1267;107740;-72
2023/07/07 05:55:28;;;;;;;4.70;4.10;;;;;;;20.09;65.51;100734.77;129426;1274;107588;-72
2023/07/07 05:58:34;;;;;;;6.30;4.30;;;;;;;20.07;63.69;100732.67;129364;1267;107239;-72
2023/07/07 06:01:39;;;;;;;5.70;4.30;;;;;;;20.08;64.97;100734.67;129306;1267;107311;-72
2023/07/07 06:04:45;;;;;;;6.00;4.50;;;;;;;20.24;65.24;100735.56;129378;1271;107535;-73
2023/07/07 06:07:52;;;;;;;5.90;4.60;;;;;;;20.33;64.68;100738.29;129397;1273;107442;-72
2023/07/07 06:10:58;;;;;;;6.40;4.30;;;;;;;20.38;64.78;100739.17;129344;1267;107553;-72
2023/07/07 06:14:03;;;;;;;7.00;4.40;;;;;;;20.45;64.10;100743.69;129147;1267;107575;-72
2023/07/07 06:17:09;;;;;;;5.10;4.20;;;;;;;20.47;62.65;100748.23;129229;1273;108586;-72
2023/07/07 06:20:16;;;;;;;4.70;3.40;;;;;;;20.46;62.30;100749.05;129496;1274;107298;-72
2023/07/07 06:23:23;;;;;;;5.50;4.00;;;;;;;20.52;62.22;100748.40;129436;1273;107562;-72
2023/07/07 06:26:28;;;;;;;4.90;3.40;;;;;;;20.60;63.07;100748.89;129299;1272;107541;-72
2023/07/07 06:29:35;;;;;;;4.20;3.60;;;;;;;20.71;62.25;100752.70;129246;1273;107441;-72
2023/07/07 06:32:41;;;;;;;6.10;3.20;;;;;;;20.79;61.03;100755.71;129436;1273;107516;-72
2023/07/07 06:35:46;;;;;;;4.50;2.90;;;;;;;20.74;59.11;100759.38;129469;1267;107578;-72
2023/07/07 06:38:52;;;;;;;5.50;3.40;;;;;;;20.69;58.78;100756.63;129417;1267;107306;-72
2023/07/07 06:42:00;;;;;;;4.00;3.20;;;;;;;20.72;59.20;100758.30;129408;1272;106721;-72
2023/07/07 06:45:09;;;;;;;5.30;3.30;;;;;;;20.77;59.02;100765.11;129170;1267;107585;-72
2023/07/07 06:48:15;;;;;;;5.20;2.80;;;;;;;20.87;58.65;100762.19;129427;1273;107411;-72
2023/07/07 06:51:21;;;;;;;3.60;2.70;;;;;;;20.94;57.83;100762.18;129517;1274;107244;-72
2023/07/07 06:54:26;;;;;;;4.50;3.00;;;;;;;20.96;56.06;100756.93;129417;1268;107808;-74
2023/07/07 06:57:32;;;;;;;3.80;3.00;;;;;;;21.00;56.46;100759.06;129446;1273;107572;-73
2023/07/07 07:00:37;;;;;;;3.10;2.80;;;;;;;21.03;57.13;100758.81;129419;1273;107543;-73
2023/07/07 07:03:44;;;;;;;4.60;3.00;;;;;;;21.10;55.76;100761.77;129312;1272;106122;-73
2023/07/07 07:06:49;;;;;;;3.20;2.70;;;;;;;21.17;56.78;100757.70;129378;1274;105814;-73
2023/07/07 07:09:55;;;;;;;3.90;2.50;;;;;;;21.26;55.35;100759.58;129278;1273;107602;-72
2023/07/07 07:13:00;;;;;;;3.30;2.70;;;;;;;21.33;55.49;100757.92;129205;1267;106587;-72
2023/07/07 07:16:06;;;;;;;2.90;2.50;;;;;;;21.39;53.36;100764.05;129278;1273;107575;-72
2023/07/07 07:19:12;;;;;;;3.30;2.70;;;;;;;21.44;54.58;100762.72;129200;1273;107587;-73
2023/07/07 07:22:18;;;;;;;4.60;2.60;;;;;;;21.55;55.08;100760.41;129278;1267;108556;-73
2023/07/07 07:25:24;;;;;;;5.00;2.80;;;;;;;21.65;53.98;100758.71;129208;1272;107583;-73
2023/07/07 07:28:29;;;;;;;2.80;2.50;;;;;;;21.75;53.77;100766.54;129213;1273;107428;-75
2023/07/07 07:31:35;;;;;;;3.30;2.50;;;;;;;21.85;52.99;100767.70;129407;1272;107560;-73
2023/07/07 07:34:40;;;;;;;4.80;2.60;;;;;;;22.00;53.30;100768.10;129471;1273;107718;-73
2023/07/07 07:37:46;;;;;;;3.00;2.30;;;;;;;22.08;52.16;100768.33;129427;1267;108214;-73
2023/07/07 07:40:54;;;;;;;3.80;2.30;;;;;;;22.05;52.94;100770.34;129425;1267;107609;-73
2023/07/07 07:44:00;;;;;;;3.90;2.60;;;;;;;22.09;53.14;100775.67;129417;1272;107442;-73
2023/07/07 07:47:06;;;;;;;3.00;2.30;;;;;;;22.16;52.52;100770.03;129407;1267;107279;-72
2023/07/07 07:50:13;;;;;;;3.20;2.30;;;;;;;22.19;51.86;100775.53;129320;1267;106754;-72
2023/07/07 07:53:19;;;;;;;3.80;2.40;;;;;;;22.21;49.61;100784.48;129387;1273;107275;-72
2023/07/07 07:56:25;;;;;;;2.70;2.30;;;;;;;22.19;49.17;100788.27;129387;1273;107500;-72
2023/07/07 07:59:31;;;;;;;3.40;2.60;;;;;;;22.20;49.56;100785.65;129177;1273;107010;-72
2023/07/07 08:02:37;;;;;;;5.30;2.50;;;;;;;22.23;50.67;100783.89;129192;1273;107581;-72
2023/07/07 08:05:42;;;;;;;3.20;2.40;;;;;;;22.34;47.61;100792.34;129423;1272;107275;-72
2023/07/07 08:08:48;;;;;;;3.50;2.30;;;;;;;22.44;48.35;100794.34;129233;1273;107671;-72
2023/07/07 08:12:00;;;;;;;2.40;2.20;;;;;;;22.51;47.25;100790.88;129361;1268;107602;-72
2023/07/07 08:15:10;;;;;;;3.40;2.70;;;;;;;22.64;48.55;100788.94;129448;1267;106734;-72
2023/07/07 08:18:15;;;;;;;3.10;2.80;;;;;;;22.73;47.49;100790.59;129427;1268;107590;-72
2023/07/07 08:21:21;;;;;;;4.70;2.50;;;;;;;22.80;47.97;100790.42;129491;1273;108732;-72
2023/07/07 08:24:29;;;;;;;3.50;2.70;;;;;;;22.89;47.32;100790.52;129368;1273;107438;-72
2023/07/07 08:27:34;;;;;;;4.40;2.70;;;;;;;23.05;46.63;100796.17;129409;1273;107601;-72
2023/07/07 08:30:40;;;;;;;3.80;2.30;;;;;;;23.10;46.50;100796.40;129415;1267;107162;-72
2023/07/07 08:33:46;;;;;;;4.00;2.60;;;;;;;23.03;45.88;100800.81;129477;1267;108621;-72
2023/07/07 08:36:54;;;;;;;3.30;2.30;;;;;;;22.99;45.63;100806.25;129491;1272;107535;-72
2023/07/07 08:39:59;;;;;;;3.00;2.20;;;;;;;22.88;46.49;100798.38;129421;1273;107489;-72
2023/07/07 08:43:05;;;;;;;3.20;2.30;;;;;;;22.90;46.63;100800.17;129393;1272;107636;-72
2023/07/07 08:46:20;;;;;;;3.60;2.30;;;;;;;23.07;45.02;100803.31;129232;1273;108730;-72
2023/07/07 08:49:32;;;;;;;2.90;2.10;;;;;;;23.27;44.09;100810.38;129304;1267;107240;-72
2023/07/07 08:52:50;;;;;;;3.30;2.20;;;;;;;23.24;41.85;100804.85;129307;1273;107465;-73
2023/07/07 08:56:06;;;;;;;2.70;2.30;;;;;;;23.30;44.65;100799.83;129427;1273;107540;-72
2023/07/07 08:59:22;;;;;;;3.30;2.30;;;;;;;23.39;42.36;100800.04;129170;1267;107315;-72
2023/07/07 09:03:02;;;;;;;2.60;2.20;;;;;;;23.36;44.53;100795.33;129156;1267;108205;-72
2023/07/07 09:06:19;;;;;;;2.50;2.20;;;;;;;23.34;44.91;100801.58;129352;1268;107755;-72
2023/07/07 09:09:49;;;;;;;4.10;2.20;;;;;;;23.31;43.69;100803.23;129269;1273;107415;-72
2023/07/07 09:13:02;;;;;;;2.00;1.80;;;;;;;23.50;42.91;100803.48;129149;1273;107550;-72
2023/07/07 09:16:23;;;;;;;2.30;2.00;;;;;;;23.63;42.60;100802.64;129278;1267;107593;-72
2023/07/07 09:19:35;;;;;;;2.70;1.50;;;;;;;23.81;42.92;100798.71;129140;1273;107588;-72
2023/07/07 09:22:44;;;;;;;2.10;1.80;;;;;;;24.03;39.91;100797.28;129299;1273;107414;-76
2023/07/07 09:25:56;;;;;;;1.70;1.30;;;;;;;24.21;40.55;100793.74;129211;1273;107520;-72
2023/07/07 09:29:06;;;;;;;1.70;1.50;;;;;;;24.36;38.29;100796.77;129421;1272;106198;-72
2023/07/07 09:32:18;;;;;;;2.00;1.60;;;;;;;24.31;37.78;100799.98;129334;1273;107545;-73
2023/07/07 09:35:28;;;;;;;2.00;1.40;;;;;;;24.25;38.42;100803.75;129420;1272;107484;-72
2023/07/07 09:38:53;;;;;;;1.70;1.50;;;;;;;24.33;36.79;100803.74;129416;1268;107544;-72
2023/07/07 09:42:08;;;;;;;1.70;1.60;;;;;;;24.27;37.13;100801.92;129293;1267;107628;-72
2023/07/07 09:45:29;;;;;;;1.90;1.50;;;;;;;24.31;39.06;100798.27;129351;1273;107575;-72
2023/07/07 09:48:39;;;;;;;3.90;1.70;;;;;;;24.28;37.39;100801.24;129331;1273;107603;-72
2023/07/07 09:51:56;;;;;;;2.30;1.70;;;;;;;24.13;37.97;100795.98;129322;1267;107471;-72
2023/07/07 09:55:03;;;;;;;1.70;1.40;;;;;;;24.23;37.55;100800.72;129175;1267;108144;-72
2023/07/07 09:58:16;;;;;;;2.10;1.70;;;;;;;24.33;37.92;100800.79;129447;1273;107434;-72
2023/07/07 10:01:27;;;;;;;1.50;1.40;;;;;;;24.38;37.76;100792.79;129431;1273;107575;-72
2023/07/07 10:04:33;;;;;;;2.00;1.40;;;;;;;24.46;37.63;100794.33;129346;1273;107509;-72
2023/07/07 10:07:41;;;;;;;3.50;1.40;;;;;;;24.57;36.66;100785.87;129227;1274;107665;-72
2023/07/07 10:10:48;;;;;;;1.50;1.40;;;;;;;24.66;37.77;100790.36;129197;1273;107559;-73
2023/07/07 10:13:54;;;;;;;3.80;1.50;;;;;;;24.54;35.78;100794.61;129181;1267;108209;-72
2023/07/07 10:17:11;;;;;;;2.30;1.40;;;;;;;24.27;37.52;100799.28;129265;1272;107490;-72
2023/07/07 10:20:17;;;;;;;1.60;1.20;;;;;;;24.12;36.08;100799.20;129279;1268;107489;-72
2023/07/07 10:23:22;;;;;;;1.50;1.40;;;;;;;23.94;35.76;100802.30;129390;1267;107250;-72
2023/07/07 10:26:28;;;;;;;3.10;1.40;;;;;;;23.76;35.73;100807.64;129153;1267;107620;-71
2023/07/07 10:29:39;;;;;;;1.70;1.50;;;;;;;23.75;36.77;100804.39;129239;1268;107293;-71
2023/07/07 10:32:44;;;;;;;2.70;1.50;;;;;;;23.71;36.23;100808.38;129347;1273;107550;-71
2023/07/07 10:35:50;;;;;;;4.20;3.20;;;;;;;23.62;36.89;100808.20;129345;1273;107688;-72
2023/07/07 10:38:57;;;;;;;1.90;1.60;;;;;;;23.60;36.59;100806.02;129432;1271;106588;-72
2023/07/07 10:42:03;;;;;;;1.90;1.50;;;;;;;23.83;36.15;100800.63;129443;1271;107591;-72
2023/07/07 10:45:12;;;;;;;1.90;1.40;;;;;;;24.13;36.64;100800.64;129451;1268;107529;-72
2023/07/07 10:48:18;;;;;;;1.80;1.20;;;;;;;24.36;35.54;100795.20;129412;1272;106092;-72
2023/07/07 10:51:37;;;;;;;2.00;1.40;;;;;;;24.59;36.93;100783.29;129461;1273;106715;-72
2023/07/07 10:54:53;;;;;;;3.30;1.50;;;;;;;24.73;33.70;100792.86;129422;1268;107393;-72
2023/07/07 10:58:11;;;;;;;1.30;1.10;;;;;;;24.64;34.16;100797.35;129412;1271;107479;-72
2023/07/07 11:01:29;;;;;;;2.70;1.50;;;;;;;24.45;34.88;100795.43;129448;1267;107562;-72
2023/07/07 11:05:00;;;;;;;2.60;1.30;;;;;;;24.50;34.33;100792.77;129313;1270;107256;-73
2023/07/07 11:08:21;;;;;;;1.40;1.20;;;;;;;24.35;33.25;100800.36;129190;1273;107764;-72
2023/07/07 11:11:37;;;;;;;1.90;1.30;;;;;;;24.10;33.56;100802.45;129088;1270;108220;-72
2023/07/07 11:14:57;;;;;;;1.80;1.20;;;;;;;24.07;34.30;100796.90;129096;1273;107611;-72
2023/07/07 11:18:21;;;;;;;1.50;1.30;;;;;;;24.27;34.60;100791.02;129158;1271;105985;-72
2023/07/07 11:21:38;;;;;;;1.90;1.50;;;;;;;24.47;34.64;100785.55;129406;1271;107647;-72
2023/07/07 11:24:51;;;;;;;1.10;1.00;;;;;;;24.58;35.45;100773.35;129346;1273;106599;-72
2023/07/07 11:28:08;;;;;;;1.20;1.10;;;;;;;24.60;35.58;100778.48;129147;1270;107292;-74
2023/07/07 11:31:38;;;;;;;2.20;1.30;;;;;;;24.65;34.62;100782.41;129101;1273;107614;-72
2023/07/07 11:35:08;;;;;;;1.60;1.30;;;;;;;24.66;33.64;100777.59;129185;1271;107386;-72
2023/07/07 11:38:30;;;;;;;3.40;1.40;;;;;;;24.74;33.65;100774.16;129162;1273;107417;-72
2023/07/07 11:41:52;;;;;;;1.30;1.10;;;;;;;24.73;32.28;100769.98;129254;1273;107583;-72
2023/07/07 11:45:10;;;;;;;1.40;1.10;;;;;;;24.82;32.83;100773.34;129118;1273;107479;-72
2023/07/07 11:48:29;;;;;;;3.10;1.20;;;;;;;25.00;33.05;100765.16;129068;1273;107298;-73
2023/07/07 11:51:49;;;;;;;1.20;1.10;;;;;;;25.18;32.93;100769.71;129111;1273;107548;-73
2023/07/07 11:55:22;;;;;;;2.10;1.30;;;;;;;25.32;33.10;100769.58;129072;1270;107662;-73
2023/07/07 11:58:36;;;;;;;1.90;1.30;;;;;;;25.35;32.48;100766.96;129310;1271;107465;-73
2023/07/07 12:01:50;;;;;;;1.60;1.40;;;;;;;25.21;31.97;100775.27;129204;1272;106759;-73
2023/07/07 12:04:59;;;;;;;2.00;1.40;;;;;;;25.18;32.36;100773.55;129331;1280;107589;-72
2023/07/07 12:08:13;;;;;;;1.50;1.30;;;;;;;25.17;32.53;100767.84;129293;1273;107857;-72
2023/07/07 12:11:22;;;;;;;1.50;1.40;;;;;;;25.15;32.38;100769.77;129222;1268;107370;-72
2023/07/07 12:14:36;;;;;;;1.60;1.20;;;;;;;25.20;32.30;100761.20;129528;1271;108387;-74
2023/07/07 12:17:56;;;;;;;1.20;1.10;;;;;;;25.26;31.87;100758.14;129494;1271;105871;-74
2023/07/07 12:21:12;;;;;;;1.70;1.30;;;;;;;25.22;32.06;100760.05;129471;1273;107611;-73
2023/07/07 12:24:25;;;;;;;1.90;1.20;;;;;;;25.14;32.12;100758.33;129412;1268;107274;-73
2023/07/07 12:27:35;;;;;;;2.10;1.30;;;;;;;25.11;31.87;100761.69;129543;1273;107501;-73
2023/07/07 12:30:46;;;;;;;1.60;1.20;;;;;;;25.07;31.60;100756.26;129430;1270;106721;-73
2023/07/07 12:33:52;;;;;;;4.20;1.30;;;;;;;25.10;31.28;100754.08;129457;1273;106370;-73
2023/07/07 12:37:01;;;;;;;1.40;1.20;;;;;;;25.04;31.42;100753.02;129509;1272;106759;-72
2023/07/07 12:40:16;;;;;;;1.40;1.30;;;;;;;25.07;31.52;100751.38;129238;1273;209818;-72
2023/07/07 12:43:27;;;;;;;1.20;1.10;;;;;;;25.03;31.66;100750.53;129315;1273;107521;-72
2023/07/07 12:46:36;;;;;;;1.60;1.20;;;;;;;25.05;31.94;100744.39;129286;1273;107276;-73
2023/07/07 12:49:43;;;;;;;1.70;1.20;;;;;;;25.07;32.01;100737.35;129330;1272;107469;-73
2023/07/07 12:52:50;;;;;;;1.60;1.20;;;;;;;25.06;31.32;100740.27;129521;1271;107580;-73
2023/07/07 12:56:13;;;;;;;1.80;1.30;;;;;;;25.12;31.69;100738.28;129291;1271;107592;-73
2023/07/07 12:59:37;;;;;;;1.80;1.60;;;;;;;25.14;31.53;100733.42;129306;1273;107557;-71
2023/07/07 13:03:01;;;;;;;1.40;1.30;;;;;;;25.17;31.01;100734.95;129474;1273;107502;-70
2023/07/07 13:06:25;;;;;;;1.80;1.40;;;;;;;25.18;30.82;100745.02;129437;1271;108766;-71
2023/07/07 13:09:46;;;;;;;2.10;1.10;;;;;;;25.20;30.95;100744.05;129301;1267;107574;-71
2023/07/07 13:12:51;;;;;;;2.00;1.30;;;;;;;25.27;31.67;100736.63;129420;1268;107545;-70
2023/07/07 13:15:57;;;;;;;1.70;1.50;;;;;;;25.32;31.29;100742.48;129479;1273;107686;-70
2023/07/07 13:19:03;;;;;;;1.40;1.30;;;;;;;25.26;31.10;100744.64;129528;1273;107292;-70
2023/07/07 13:22:17;;;;;;;1.50;1.20;;;;;;;25.29;30.53;100742.80;129570;1273;107610;-71
2023/07/07 13:25:30;;;;;;;1.70;1.50;;;;;;;25.29;31.42;100741.70;129654;1273;107873;-71
2023/07/07 13:28:35;;;;;;;1.20;1.10;;;;;;;25.21;31.75;100735.14;129378;1273;106940;-71
2023/07/07 13:31:43;;;;;;;1.40;1.30;;;;;;;25.03;31.83;100740.61;129300;1273;108706;-70
2023/07/07 13:34:49;;;;;;;1.50;1.40;;;;;;;24.85;30.83;100744.33;129361;1273;107655;-70
2023/07/07 13:37:59;;;;;;;1.30;1.20;;;;;;;24.79;31.51;100740.99;129589;1273;108580;-70
2023/07/07 13:41:06;;;;;;;1.70;1.30;;;;;;;24.86;31.63;100738.45;129261;1271;108184;-71
2023/07/07 13:44:16;;;;;;;1.80;1.40;;;;;;;24.91;32.05;100736.16;129346;1267;107515;-71
2023/07/07 13:47:23;;;;;;;1.40;1.30;;;;;;;25.01;31.06;100741.02;129516;1272;107475;-71
2023/07/07 13:50:30;;;;;;;1.70;1.40;;;;;;;25.08;30.97;100739.34;129548;1273;107402;-70
2023/07/07 13:53:38;;;;;;;1.50;1.20;;;;;;;25.10;31.24;100743.06;129593;1268;107281;-74
2023/07/07 13:56:49;;;;;;;1.60;1.30;;;;;;;25.12;31.18;100738.33;129253;1272;107614;-72
2023/07/07 13:59:55;;;;;;;1.50;1.30;;;;;;;25.22;31.88;100741.64;129470;1268;107447;-72
2023/07/07 14:03:01;;;;;;;1.40;1.30;;;;;;;25.30;31.14;100737.25;129240;1268;107551;-72
2023/07/07 14:06:16;;;;;;;3.60;1.30;;;;;;;25.32;31.40;100740.38;129656;1273;107715;-73
2023/07/07 14:09:25;;;;;;;2.00;1.30;;;;;;;25.36;30.57;100747.98;129718;1270;108693;-71
2023/07/07 14:12:31;;;;;;;1.40;1.30;;;;;;;25.33;30.22;100743.76;129463;1271;107283;-70
2023/07/07 14:15:42;;;;;;;1.90;1.60;;;;;;;25.34;30.57;100740.73;129475;1273;107524;-70
2023/07/07 14:19:07;;;;;;;1.50;1.20;;;;;;;25.35;30.86;100737.52;129540;1273;107508;-71
2023/07/07 14:22:13;;;;;;;1.50;1.40;;;;;;;25.36;30.45;100735.52;129617;1267;107406;-73